Timber, Oregon
Current Conditions -  °F | °C
As of 7:53 PM on Friday 24 Oct 2014 (Local Time) from KSPB Reporting Station
Broken Clouds Broken Clouds  
Wind Chill: 52°   Ceiling: 5500
Heat Index: 52°   Visibility: 10mi
Dew Point: 51°   Wind: 5mph
Humidity: 97%   Direction: 300°WNW
Pressure: 29.78"   Gusts: NA
Location:  45.72°N, 123.3°W
Report Text: KSPB 250253Z AUTO 30004KT 10SM FEW016 SCT047 BKN055 11/11 A2978 RMK AO2 RAE15 SLP083 P0000 60011 T01110106 58020
Loading
Personal Weather Stations






























Interactive Weather Map
Tropical Storm Tracking
New forecast layout! Learn more

10-Day Weather Forecast

Advertisements
Track Severe Weather on mobile